sensor_id;sensor_type;location;lat;lon;timestamp;P1;durP1;ratioP1;P2;durP2;ratioP2
48534;SDS011;34323;52.022;5.686;2023-04-12T00:00:00;8.73;;;1.83;;
48534;SDS011;34323;52.022;5.686;2023-04-12T00:02:26;8.85;;;3.25;;
48534;SDS011;34323;52.022;5.686;2023-04-12T00:04:51;7.78;;;2.20;;
48534;SDS011;34323;52.022;5.686;2023-04-12T00:07:24;13.25;;;2.08;;
48534;SDS011;34323;52.022;5.686;2023-04-12T00:09:51;11.57;;;2.63;;
48534;SDS011;34323;52.022;5.686;2023-04-12T00:12:17;9.05;;;2.60;;
48534;SDS011;34323;52.022;5.686;2023-04-12T00:14:43;12.60;;;2.17;;
48534;SDS011;34323;52.022;5.686;2023-04-12T00:17:10;7.88;;;2.50;;
48534;SDS011;34323;52.022;5.686;2023-04-12T00:19:36;12.48;;;1.85;;
48534;SDS011;34323;52.022;5.686;2023-04-12T00:22:06;13.80;;;2.60;;
48534;SDS011;34323;52.022;5.686;2023-04-12T00:24:37;7.85;;;2.30;;
48534;SDS011;34323;52.022;5.686;2023-04-12T00:27:03;10.90;;;1.92;;
48534;SDS011;34323;52.022;5.686;2023-04-12T00:29:29;9.32;;;1.92;;
48534;SDS011;34323;52.022;5.686;2023-04-12T00:31:56;9.00;;;1.88;;
48534;SDS011;34323;52.022;5.686;2023-04-12T00:34:21;13.55;;;2.65;;
48534;SDS011;34323;52.022;5.686;2023-04-12T00:36:47;12.20;;;2.25;;
48534;SDS011;34323;52.022;5.686;2023-04-12T00:39:13;8.43;;;2.05;;
48534;SDS011;34323;52.022;5.686;2023-04-12T00:41:39;8.48;;;2.95;;
48534;SDS011;34323;52.022;5.686;2023-04-12T00:44:05;8.55;;;2.13;;
48534;SDS011;34323;52.022;5.686;2023-04-12T00:46:32;7.85;;;2.20;;
48534;SDS011;34323;52.022;5.686;2023-04-12T00:48:58;4.93;;;1.52;;
48534;SDS011;34323;52.022;5.686;2023-04-12T00:51:24;7.78;;;1.65;;
48534;SDS011;34323;52.022;5.686;2023-04-12T00:53:54;9.40;;;2.25;;
48534;SDS011;34323;52.022;5.686;2023-04-12T00:56:24;10.00;;;2.55;;
48534;SDS011;34323;52.022;5.686;2023-04-12T00:58:51;8.63;;;2.10;;
48534;SDS011;34323;52.022;5.686;2023-04-12T01:01:17;10.48;;;2.00;;
48534;SDS011;34323;52.022;5.686;2023-04-12T01:03:43;4.53;;;1.60;;
48534;SDS011;34323;52.022;5.686;2023-04-12T01:06:15;6.10;;;2.00;;
48534;SDS011;34323;52.022;5.686;2023-04-12T01:11:37;6.10;;;1.40;;
48534;SDS011;34323;52.022;5.686;2023-04-12T01:14:21;9.77;;;2.30;;
48534;SDS011;34323;52.022;5.686;2023-04-12T01:17:03;4.55;;;1.58;;
48534;SDS011;34323;52.022;5.686;2023-04-12T01:22:54;3.05;;;1.52;;
48534;SDS011;34323;52.022;5.686;2023-04-12T01:28:03;7.63;;;1.70;;
48534;SDS011;34323;52.022;5.686;2023-04-12T01:30:31;7.38;;;2.15;;
48534;SDS011;34323;52.022;5.686;2023-04-12T01:32:59;5.07;;;1.60;;
48534;SDS011;34323;52.022;5.686;2023-04-12T01:35:28;6.07;;;1.52;;
48534;SDS011;34323;52.022;5.686;2023-04-12T01:37:56;8.48;;;2.05;;
48534;SDS011;34323;52.022;5.686;2023-04-12T01:40:23;6.10;;;1.90;;
48534;SDS011;34323;52.022;5.686;2023-04-12T01:43:02;4.22;;;1.63;;
48534;SDS011;34323;52.022;5.686;2023-04-12T01:45:35;6.88;;;2.10;;
48534;SDS011;34323;52.022;5.686;2023-04-12T01:48:01;10.48;;;1.58;;
48534;SDS011;34323;52.022;5.686;2023-04-12T01:53:13;6.45;;;2.75;;
48534;SDS011;34323;52.022;5.686;2023-04-12T01:55:50;3.97;;;2.00;;
48534;SDS011;34323;52.022;5.686;2023-04-12T01:58:22;5.60;;;1.75;;
48534;SDS011;34323;52.022;5.686;2023-04-12T02:00:49;6.80;;;1.85;;
48534;SDS011;34323;52.022;5.686;2023-04-12T02:03:17;3.45;;;1.65;;
48534;SDS011;34323;52.022;5.686;2023-04-12T02:05:45;9.40;;;2.28;;
48534;SDS011;34323;52.022;5.686;2023-04-12T02:08:11;6.45;;;1.85;;
48534;SDS011;34323;52.022;5.686;2023-04-12T02:10:37;7.10;;;2.13;;
48534;SDS011;34323;52.022;5.686;2023-04-12T02:13:04;7.85;;;2.20;;
48534;SDS011;34323;52.022;5.686;2023-04-12T02:15:30;9.82;;;2.20;;
48534;SDS011;34323;52.022;5.686;2023-04-12T02:17:55;4.00;;;1.88;;
48534;SDS011;34323;52.022;5.686;2023-04-12T02:20:23;4.22;;;1.98;;
48534;SDS011;34323;52.022;5.686;2023-04-12T02:22:49;6.75;;;1.67;;
48534;SDS011;34323;52.022;5.686;2023-04-12T02:25:15;7.03;;;2.40;;
48534;SDS011;34323;52.022;5.686;2023-04-12T02:27:43;9.25;;;2.33;;
48534;SDS011;34323;52.022;5.686;2023-04-12T02:30:10;5.70;;;2.40;;
48534;SDS011;34323;52.022;5.686;2023-04-12T02:32:36;10.30;;;2.50;;
48534;SDS011;34323;52.022;5.686;2023-04-12T02:35:08;4.97;;;2.10;;
48534;SDS011;34323;52.022;5.686;2023-04-12T02:37:35;5.07;;;2.13;;
48534;SDS011;34323;52.022;5.686;2023-04-12T02:40:01;8.27;;;1.45;;
48534;SDS011;34323;52.022;5.686;2023-04-12T02:42:29;8.70;;;2.08;;
48534;SDS011;34323;52.022;5.686;2023-04-12T02:44:55;8.00;;;2.35;;
48534;SDS011;34323;52.022;5.686;2023-04-12T02:47:21;6.50;;;1.45;;
48534;SDS011;34323;52.022;5.686;2023-04-12T02:49:46;5.07;;;1.55;;
48534;SDS011;34323;52.022;5.686;2023-04-12T02:52:12;3.70;;;1.60;;
48534;SDS011;34323;52.022;5.686;2023-04-12T02:54:38;8.13;;;1.67;;
48534;SDS011;34323;52.022;5.686;2023-04-12T02:57:03;6.85;;;2.00;;
48534;SDS011;34323;52.022;5.686;2023-04-12T02:59:30;5.95;;;1.65;;
48534;SDS011;34323;52.022;5.686;2023-04-12T03:01:56;3.63;;;1.63;;
48534;SDS011;34323;52.022;5.686;2023-04-12T03:04:21;16.23;;;2.50;;
48534;SDS011;34323;52.022;5.686;2023-04-12T03:06:54;10.77;;;1.73;;
48534;SDS011;34323;52.022;5.686;2023-04-12T03:09:20;6.68;;;1.80;;
48534;SDS011;34323;52.022;5.686;2023-04-12T03:11:46;4.15;;;1.55;;
48534;SDS011;34323;52.022;5.686;2023-04-12T03:14:12;6.85;;;1.80;;
48534;SDS011;34323;52.022;5.686;2023-04-12T03:16:38;7.53;;;1.75;;
48534;SDS011;34323;52.022;5.686;2023-04-12T03:19:03;5.70;;;2.45;;
48534;SDS011;34323;52.022;5.686;2023-04-12T03:21:30;3.20;;;1.65;;
48534;SDS011;34323;52.022;5.686;2023-04-12T03:23:57;7.30;;;2.20;;
48534;SDS011;34323;52.022;5.686;2023-04-12T03:26:23;5.70;;;1.98;;
48534;SDS011;34323;52.022;5.686;2023-04-12T03:28:50;5.30;;;1.45;;
48534;SDS011;34323;52.022;5.686;2023-04-12T03:31:19;9.15;;;1.85;;
48534;SDS011;34323;52.022;5.686;2023-04-12T03:33:45;6.93;;;2.50;;
48534;SDS011;34323;52.022;5.686;2023-04-12T03:36:11;5.43;;;1.40;;
48534;SDS011;34323;52.022;5.686;2023-04-12T03:38:36;5.63;;;1.48;;
48534;SDS011;34323;52.022;5.686;2023-04-12T03:41:02;5.10;;;1.52;;
48534;SDS011;34323;52.022;5.686;2023-04-12T03:43:28;5.35;;;1.67;;
48534;SDS011;34323;52.022;5.686;2023-04-12T03:45:59;6.18;;;2.25;;
48534;SDS011;34323;52.022;5.686;2023-04-12T03:48:26;7.68;;;1.90;;
48534;SDS011;34323;52.022;5.686;2023-04-12T03:50:52;4.90;;;1.70;;
48534;SDS011;34323;52.022;5.686;2023-04-12T03:53:18;7.55;;;1.90;;
48534;SDS011;34323;52.022;5.686;2023-04-12T03:55:45;8.70;;;1.85;;
48534;SDS011;34323;52.022;5.686;2023-04-12T03:58:11;6.32;;;1.75;;
48534;SDS011;34323;52.022;5.686;2023-04-12T04:00:37;4.15;;;1.80;;
48534;SDS011;34323;52.022;5.686;2023-04-12T04:03:03;5.75;;;1.92;;
48534;SDS011;34323;52.022;5.686;2023-04-12T04:05:29;8.05;;;2.30;;
48534;SDS011;34323;52.022;5.686;2023-04-12T04:07:55;5.68;;;1.92;;
48534;SDS011;34323;52.022;5.686;2023-04-12T04:10:29;5.45;;;1.50;;
48534;SDS011;34323;52.022;5.686;2023-04-12T04:12:55;6.53;;;1.52;;
48534;SDS011;34323;52.022;5.686;2023-04-12T04:15:20;4.78;;;1.70;;
48534;SDS011;34323;52.022;5.686;2023-04-12T04:17:46;4.97;;;1.65;;
48534;SDS011;34323;52.022;5.686;2023-04-12T04:20:13;5.20;;;2.38;;
48534;SDS011;34323;52.022;5.686;2023-04-12T04:22:39;5.45;;;2.03;;
48534;SDS011;34323;52.022;5.686;2023-04-12T04:25:06;6.82;;;1.88;;
48534;SDS011;34323;52.022;5.686;2023-04-12T04:27:32;6.00;;;2.55;;
48534;SDS011;34323;52.022;5.686;2023-04-12T04:30:01;2.95;;;1.80;;
48534;SDS011;34323;52.022;5.686;2023-04-12T04:32:27;6.13;;;2.35;;
48534;SDS011;34323;52.022;5.686;2023-04-12T04:34:56;6.80;;;2.13;;
48534;SDS011;34323;52.022;5.686;2023-04-12T04:37:25;8.10;;;2.30;;
48534;SDS011;34323;52.022;5.686;2023-04-12T04:39:52;6.32;;;2.50;;
48534;SDS011;34323;52.022;5.686;2023-04-12T04:42:17;7.55;;;2.00;;
48534;SDS011;34323;52.022;5.686;2023-04-12T04:44:43;10.15;;;2.22;;
48534;SDS011;34323;52.022;5.686;2023-04-12T04:47:09;3.50;;;2.00;;
48534;SDS011;34323;52.022;5.686;2023-04-12T04:49:35;4.38;;;2.20;;
48534;SDS011;34323;52.022;5.686;2023-04-12T04:52:01;4.72;;;1.80;;
48534;SDS011;34323;52.022;5.686;2023-04-12T04:54:28;4.13;;;2.08;;
48534;SDS011;34323;52.022;5.686;2023-04-12T04:56:55;2.60;;;1.55;;
48534;SDS011;34323;52.022;5.686;2023-04-12T04:59:21;4.85;;;2.42;;
48534;SDS011;34323;52.022;5.686;2023-04-12T05:01:47;3.83;;;2.20;;
48534;SDS011;34323;52.022;5.686;2023-04-12T05:04:13;4.85;;;2.38;;
48534;SDS011;34323;52.022;5.686;2023-04-12T05:06:39;4.63;;;2.33;;
48534;SDS011;34323;52.022;5.686;2023-04-12T05:09:04;5.50;;;2.92;;
48534;SDS011;34323;52.022;5.686;2023-04-12T05:11:30;6.22;;;2.38;;
48534;SDS011;34323;52.022;5.686;2023-04-12T05:13:55;7.80;;;3.75;;
48534;SDS011;34323;52.022;5.686;2023-04-12T05:16:21;4.18;;;2.17;;
48534;SDS011;34323;52.022;5.686;2023-04-12T05:18:47;6.43;;;2.35;;
48534;SDS011;34323;52.022;5.686;2023-04-12T05:21:12;6.13;;;2.42;;
48534;SDS011;34323;52.022;5.686;2023-04-12T05:23:42;6.70;;;2.25;;
48534;SDS011;34323;52.022;5.686;2023-04-12T05:26:09;5.38;;;2.38;;
48534;SDS011;34323;52.022;5.686;2023-04-12T05:28:35;8.45;;;2.33;;
48534;SDS011;34323;52.022;5.686;2023-04-12T05:31:01;9.80;;;2.95;;
48534;SDS011;34323;52.022;5.686;2023-04-12T05:33:26;3.65;;;2.58;;
48534;SDS011;34323;52.022;5.686;2023-04-12T05:35:52;7.25;;;2.70;;
48534;SDS011;34323;52.022;5.686;2023-04-12T05:38:17;14.02;;;3.22;;
48534;SDS011;34323;52.022;5.686;2023-04-12T05:40:43;6.10;;;2.60;;
48534;SDS011;34323;52.022;5.686;2023-04-12T05:43:09;5.25;;;3.00;;
48534;SDS011;34323;52.022;5.686;2023-04-12T05:45:38;3.97;;;2.65;;
48534;SDS011;34323;52.022;5.686;2023-04-12T05:48:05;5.22;;;2.55;;
48534;SDS011;34323;52.022;5.686;2023-04-12T05:50:30;11.05;;;2.88;;
48534;SDS011;34323;52.022;5.686;2023-04-12T05:52:56;7.82;;;2.65;;
48534;SDS011;34323;52.022;5.686;2023-04-12T05:55:21;6.53;;;2.50;;
48534;SDS011;34323;52.022;5.686;2023-04-12T05:57:47;4.55;;;2.55;;
48534;SDS011;34323;52.022;5.686;2023-04-12T06:00:13;6.55;;;2.75;;
48534;SDS011;34323;52.022;5.686;2023-04-12T06:02:46;7.07;;;2.42;;
48534;SDS011;34323;52.022;5.686;2023-04-12T06:05:12;5.70;;;2.45;;
48534;SDS011;34323;52.022;5.686;2023-04-12T06:07:39;3.97;;;2.47;;
48534;SDS011;34323;52.022;5.686;2023-04-12T06:12:38;5.60;;;2.45;;
48534;SDS011;34323;52.022;5.686;2023-04-12T06:15:03;3.53;;;2.30;;
48534;SDS011;34323;52.022;5.686;2023-04-12T06:17:30;6.18;;;2.78;;
48534;SDS011;34323;52.022;5.686;2023-04-12T06:19:56;4.40;;;2.35;;
48534;SDS011;34323;52.022;5.686;2023-04-12T06:22:21;4.57;;;2.50;;
48534;SDS011;34323;52.022;5.686;2023-04-12T06:24:47;4.10;;;2.38;;
48534;SDS011;34323;52.022;5.686;2023-04-12T06:27:12;9.73;;;2.35;;
48534;SDS011;34323;52.022;5.686;2023-04-12T06:29:38;3.30;;;1.90;;
48534;SDS011;34323;52.022;5.686;2023-04-12T06:32:03;4.47;;;2.22;;
48534;SDS011;34323;52.022;5.686;2023-04-12T06:34:29;5.25;;;2.15;;
48534;SDS011;34323;52.022;5.686;2023-04-12T06:36:55;4.93;;;2.15;;
48534;SDS011;34323;52.022;5.686;2023-04-12T06:39:21;8.73;;;2.67;;
48534;SDS011;34323;52.022;5.686;2023-04-12T06:41:47;5.32;;;2.35;;
48534;SDS011;34323;52.022;5.686;2023-04-12T06:44:14;5.28;;;2.47;;
48534;SDS011;34323;52.022;5.686;2023-04-12T06:46:40;3.90;;;2.30;;
48534;SDS011;34323;52.022;5.686;2023-04-12T06:49:06;6.68;;;2.80;;
48534;SDS011;34323;52.022;5.686;2023-04-12T06:51:32;5.28;;;2.63;;
48534;SDS011;34323;52.022;5.686;2023-04-12T06:53:59;4.25;;;2.63;;
48534;SDS011;34323;52.022;5.686;2023-04-12T06:56:25;8.10;;;2.53;;
48534;SDS011;34323;52.022;5.686;2023-04-12T06:58:50;8.02;;;2.80;;
48534;SDS011;34323;52.022;5.686;2023-04-12T07:01:16;5.50;;;3.08;;
48534;SDS011;34323;52.022;5.686;2023-04-12T07:03:41;11.82;;;3.17;;
48534;SDS011;34323;52.022;5.686;2023-04-12T07:06:07;5.28;;;3.42;;
48534;SDS011;34323;52.022;5.686;2023-04-12T07:08:33;5.18;;;3.00;;
48534;SDS011;34323;52.022;5.686;2023-04-12T07:11:00;4.25;;;2.25;;
48534;SDS011;34323;52.022;5.686;2023-04-12T07:13:26;4.70;;;2.90;;
48534;SDS011;34323;52.022;5.686;2023-04-12T07:15:52;3.80;;;2.47;;
48534;SDS011;34323;52.022;5.686;2023-04-12T07:18:18;5.45;;;3.08;;
48534;SDS011;34323;52.022;5.686;2023-04-12T07:20:45;4.50;;;3.03;;
48534;SDS011;34323;52.022;5.686;2023-04-12T07:23:12;4.30;;;3.20;;
48534;SDS011;34323;52.022;5.686;2023-04-12T07:25:39;4.22;;;2.83;;
48534;SDS011;34323;52.022;5.686;2023-04-12T07:28:04;3.92;;;2.83;;
48534;SDS011;34323;52.022;5.686;2023-04-12T07:30:30;5.57;;;2.83;;
48534;SDS011;34323;52.022;5.686;2023-04-12T07:32:55;7.45;;;2.80;;
48534;SDS011;34323;52.022;5.686;2023-04-12T07:35:21;5.35;;;3.30;;
48534;SDS011;34323;52.022;5.686;2023-04-12T07:37:47;6.38;;;2.90;;
48534;SDS011;34323;52.022;5.686;2023-04-12T07:40:13;8.90;;;3.67;;
48534;SDS011;34323;52.022;5.686;2023-04-12T07:42:38;6.75;;;3.53;;
48534;SDS011;34323;52.022;5.686;2023-04-12T07:45:04;6.70;;;3.38;;
48534;SDS011;34323;52.022;5.686;2023-04-12T07:47:30;11.20;;;3.75;;
48534;SDS011;34323;52.022;5.686;2023-04-12T07:49:56;7.20;;;3.83;;
48534;SDS011;34323;52.022;5.686;2023-04-12T07:52:23;8.30;;;4.03;;
48534;SDS011;34323;52.022;5.686;2023-04-12T07:54:49;10.18;;;3.50;;
48534;SDS011;34323;52.022;5.686;2023-04-12T07:57:15;8.57;;;4.15;;
48534;SDS011;34323;52.022;5.686;2023-04-12T07:59:40;5.88;;;3.80;;
48534;SDS011;34323;52.022;5.686;2023-04-12T08:02:06;7.68;;;3.40;;
48534;SDS011;34323;52.022;5.686;2023-04-12T08:04:31;13.43;;;4.40;;
48534;SDS011;34323;52.022;5.686;2023-04-12T08:06:57;5.20;;;3.90;;
48534;SDS011;34323;52.022;5.686;2023-04-12T08:09:23;5.57;;;3.47;;
48534;SDS011;34323;52.022;5.686;2023-04-12T08:11:48;5.95;;;4.15;;
48534;SDS011;34323;52.022;5.686;2023-04-12T08:14:14;12.82;;;4.75;;
48534;SDS011;34323;52.022;5.686;2023-04-12T08:16:40;6.60;;;4.10;;
48534;SDS011;34323;52.022;5.686;2023-04-12T08:19:05;13.20;;;4.65;;
48534;SDS011;34323;52.022;5.686;2023-04-12T08:21:31;11.27;;;4.47;;
48534;SDS011;34323;52.022;5.686;2023-04-12T08:23:57;13.30;;;4.63;;
48534;SDS011;34323;52.022;5.686;2023-04-12T08:26:24;13.32;;;3.35;;
48534;SDS011;34323;52.022;5.686;2023-04-12T08:28:50;15.10;;;3.78;;
48534;SDS011;34323;52.022;5.686;2023-04-12T08:31:16;14.68;;;3.65;;
48534;SDS011;34323;52.022;5.686;2023-04-12T08:33:42;15.10;;;4.00;;
48534;SDS011;34323;52.022;5.686;2023-04-12T08:36:07;13.57;;;2.80;;
48534;SDS011;34323;52.022;5.686;2023-04-12T08:38:35;8.15;;;3.67;;
48534;SDS011;34323;52.022;5.686;2023-04-12T08:41:02;11.43;;;3.35;;
48534;SDS011;34323;52.022;5.686;2023-04-12T08:43:29;12.55;;;3.30;;
48534;SDS011;34323;52.022;5.686;2023-04-12T08:45:57;8.25;;;3.15;;
48534;SDS011;34323;52.022;5.686;2023-04-12T08:48:23;8.63;;;2.53;;
48534;SDS011;34323;52.022;5.686;2023-04-12T08:50:50;13.55;;;3.15;;
48534;SDS011;34323;52.022;5.686;2023-04-12T08:53:16;12.00;;;3.45;;
48534;SDS011;34323;52.022;5.686;2023-04-12T08:55:42;12.93;;;3.30;;
48534;SDS011;34323;52.022;5.686;2023-04-12T08:58:09;12.98;;;3.67;;
48534;SDS011;34323;52.022;5.686;2023-04-12T09:00:38;11.15;;;3.00;;
48534;SDS011;34323;52.022;5.686;2023-04-12T09:03:05;16.70;;;4.03;;
48534;SDS011;34323;52.022;5.686;2023-04-12T09:05:31;8.02;;;3.47;;
48534;SDS011;34323;52.022;5.686;2023-04-12T09:07:57;13.10;;;3.35;;
48534;SDS011;34323;52.022;5.686;2023-04-12T09:10:32;8.60;;;2.88;;
48534;SDS011;34323;52.022;5.686;2023-04-12T09:13:00;6.47;;;2.45;;
48534;SDS011;34323;52.022;5.686;2023-04-12T09:15:27;12.60;;;3.33;;
48534;SDS011;34323;52.022;5.686;2023-04-12T09:18:04;13.35;;;3.55;;
48534;SDS011;34323;52.022;5.686;2023-04-12T09:20:32;20.48;;;3.35;;
48534;SDS011;34323;52.022;5.686;2023-04-12T09:22:58;22.05;;;3.63;;
48534;SDS011;34323;52.022;5.686;2023-04-12T09:25:41;14.30;;;3.15;;
48534;SDS011;34323;52.022;5.686;2023-04-12T09:28:19;11.52;;;3.00;;
48534;SDS011;34323;52.022;5.686;2023-04-12T09:30:47;12.95;;;3.58;;
48534;SDS011;34323;52.022;5.686;2023-04-12T09:33:16;12.27;;;2.95;;
48534;SDS011;34323;52.022;5.686;2023-04-12T09:35:45;14.15;;;3.10;;
48534;SDS011;34323;52.022;5.686;2023-04-12T09:38:11;16.50;;;3.78;;
48534;SDS011;34323;52.022;5.686;2023-04-12T09:40:37;13.15;;;3.50;;
48534;SDS011;34323;52.022;5.686;2023-04-12T09:43:03;12.93;;;2.60;;
48534;SDS011;34323;52.022;5.686;2023-04-12T09:45:32;8.73;;;2.63;;
48534;SDS011;34323;52.022;5.686;2023-04-12T09:47:58;15.32;;;2.85;;
48534;SDS011;34323;52.022;5.686;2023-04-12T09:50:27;16.38;;;3.60;;
48534;SDS011;34323;52.022;5.686;2023-04-12T09:52:57;18.52;;;3.60;;
48534;SDS011;34323;52.022;5.686;2023-04-12T09:55:25;14.32;;;2.58;;
48534;SDS011;34323;52.022;5.686;2023-04-12T09:57:53;17.63;;;3.50;;
48534;SDS011;34323;52.022;5.686;2023-04-12T10:00:23;21.45;;;3.08;;
48534;SDS011;34323;52.022;5.686;2023-04-12T10:02:51;18.33;;;3.13;;
48534;SDS011;34323;52.022;5.686;2023-04-12T10:05:19;15.35;;;2.53;;
48534;SDS011;34323;52.022;5.686;2023-04-12T10:07:46;24.65;;;3.97;;
48534;SDS011;34323;52.022;5.686;2023-04-12T10:10:13;16.52;;;3.38;;
48534;SDS011;34323;52.022;5.686;2023-04-12T10:12:42;14.90;;;2.50;;
48534;SDS011;34323;52.022;5.686;2023-04-12T10:15:11;12.32;;;2.17;;
48534;SDS011;34323;52.022;5.686;2023-04-12T10:17:41;15.90;;;3.15;;
48534;SDS011;34323;52.022;5.686;2023-04-12T10:20:14;26.02;;;4.03;;
48534;SDS011;34323;52.022;5.686;2023-04-12T10:22:44;11.48;;;3.03;;
48534;SDS011;34323;52.022;5.686;2023-04-12T10:25:18;14.93;;;2.95;;
48534;SDS011;34323;52.022;5.686;2023-04-12T10:27:46;18.92;;;3.10;;
48534;SDS011;34323;52.022;5.686;2023-04-12T10:35:29;17.25;;;3.28;;
48534;SDS011;34323;52.022;5.686;2023-04-12T10:38:13;16.10;;;3.10;;
48534;SDS011;34323;52.022;5.686;2023-04-12T10:43:38;27.05;;;4.63;;
48534;SDS011;34323;52.022;5.686;2023-04-12T10:46:30;19.95;;;3.63;;
48534;SDS011;34323;52.022;5.686;2023-04-12T10:49:06;21.65;;;3.65;;
48534;SDS011;34323;52.022;5.686;2023-04-12T10:51:33;17.73;;;2.92;;
48534;SDS011;34323;52.022;5.686;2023-04-12T10:56:43;9.20;;;2.63;;
48534;SDS011;34323;52.022;5.686;2023-04-12T10:59:10;11.77;;;2.25;;
48534;SDS011;34323;52.022;5.686;2023-04-12T11:01:36;14.50;;;2.83;;
48534;SDS011;34323;52.022;5.686;2023-04-12T11:04:07;15.68;;;2.42;;
48534;SDS011;34323;52.022;5.686;2023-04-12T11:09:18;15.45;;;2.42;;
48534;SDS011;34323;52.022;5.686;2023-04-12T11:11:46;9.43;;;1.98;;
48534;SDS011;34323;52.022;5.686;2023-04-12T11:14:13;12.82;;;2.25;;
48534;SDS011;34323;52.022;5.686;2023-04-12T11:22:38;9.30;;;2.22;;
48534;SDS011;34323;52.022;5.686;2023-04-12T11:25:05;8.32;;;2.03;;
48534;SDS011;34323;52.022;5.686;2023-04-12T11:27:30;12.27;;;2.78;;
48534;SDS011;34323;52.022;5.686;2023-04-12T11:29:57;11.15;;;2.60;;
48534;SDS011;34323;52.022;5.686;2023-04-12T11:32:24;14.82;;;2.95;;
48534;SDS011;34323;52.022;5.686;2023-04-12T11:34:52;20.13;;;2.85;;
48534;SDS011;34323;52.022;5.686;2023-04-12T11:37:18;21.33;;;3.53;;
48534;SDS011;34323;52.022;5.686;2023-04-12T11:39:45;20.15;;;3.03;;
48534;SDS011;34323;52.022;5.686;2023-04-12T11:42:14;17.83;;;3.30;;
48534;SDS011;34323;52.022;5.686;2023-04-12T11:44:45;15.90;;;2.67;;
48534;SDS011;34323;52.022;5.686;2023-04-12T11:47:11;20.17;;;3.85;;
48534;SDS011;34323;52.022;5.686;2023-04-12T11:49:48;12.25;;;2.20;;
48534;SDS011;34323;52.022;5.686;2023-04-12T11:52:15;7.95;;;1.55;;
48534;SDS011;34323;52.022;5.686;2023-04-12T11:54:46;7.07;;;1.10;;
48534;SDS011;34323;52.022;5.686;2023-04-12T11:57:14;14.00;;;1.48;;
48534;SDS011;34323;52.022;5.686;2023-04-12T11:59:42;8.00;;;1.70;;
48534;SDS011;34323;52.022;5.686;2023-04-12T12:02:11;4.47;;;1.45;;
48534;SDS011;34323;52.022;5.686;2023-04-12T12:04:38;11.20;;;1.75;;
48534;SDS011;34323;52.022;5.686;2023-04-12T12:07:05;7.78;;;1.70;;
48534;SDS011;34323;52.022;5.686;2023-04-12T12:09:32;7.50;;;1.75;;
48534;SDS011;34323;52.022;5.686;2023-04-12T12:11:58;11.90;;;1.80;;
48534;SDS011;34323;52.022;5.686;2023-04-12T12:14:25;10.93;;;2.30;;
48534;SDS011;34323;52.022;5.686;2023-04-12T12:16:58;12.90;;;2.50;;
48534;SDS011;34323;52.022;5.686;2023-04-12T12:19:35;7.35;;;1.80;;
48534;SDS011;34323;52.022;5.686;2023-04-12T12:22:13;9.38;;;1.38;;
48534;SDS011;34323;52.022;5.686;2023-04-12T12:24:49;15.95;;;2.63;;
48534;SDS011;34323;52.022;5.686;2023-04-12T12:27:35;10.50;;;2.63;;
48534;SDS011;34323;52.022;5.686;2023-04-12T12:30:02;11.40;;;1.92;;
48534;SDS011;34323;52.022;5.686;2023-04-12T12:32:32;8.98;;;1.65;;
48534;SDS011;34323;52.022;5.686;2023-04-12T12:34:59;12.02;;;1.90;;
48534;SDS011;34323;52.022;5.686;2023-04-12T12:37:25;10.48;;;2.28;;
48534;SDS011;34323;52.022;5.686;2023-04-12T12:42:57;11.10;;;1.75;;
48534;SDS011;34323;52.022;5.686;2023-04-12T12:45:24;4.93;;;1.38;;
48534;SDS011;34323;52.022;5.686;2023-04-12T12:47:51;6.28;;;1.35;;
48534;SDS011;34323;52.022;5.686;2023-04-12T12:50:18;9.15;;;1.45;;
48534;SDS011;34323;52.022;5.686;2023-04-12T12:52:46;10.65;;;1.30;;
48534;SDS011;34323;52.022;5.686;2023-04-12T12:55:13;5.85;;;1.83;;
48534;SDS011;34323;52.022;5.686;2023-04-12T12:57:40;11.75;;;1.70;;
48534;SDS011;34323;52.022;5.686;2023-04-12T13:00:13;7.95;;;1.40;;
48534;SDS011;34323;52.022;5.686;2023-04-12T13:02:40;9.60;;;2.65;;
48534;SDS011;34323;52.022;5.686;2023-04-12T13:05:06;9.38;;;1.92;;
48534;SDS011;34323;52.022;5.686;2023-04-12T13:07:32;8.73;;;2.08;;
48534;SDS011;34323;52.022;5.686;2023-04-12T13:09:58;7.97;;;1.30;;
48534;SDS011;34323;52.022;5.686;2023-04-12T13:12:24;7.50;;;1.70;;
48534;SDS011;34323;52.022;5.686;2023-04-12T13:14:50;5.00;;;1.33;;
48534;SDS011;34323;52.022;5.686;2023-04-12T13:17:16;14.68;;;1.70;;
48534;SDS011;34323;52.022;5.686;2023-04-12T13:19:42;7.38;;;1.27;;
48534;SDS011;34323;52.022;5.686;2023-04-12T13:22:12;8.80;;;1.30;;
48534;SDS011;34323;52.022;5.686;2023-04-12T13:24:38;6.28;;;1.73;;
48534;SDS011;34323;52.022;5.686;2023-04-12T13:27:04;10.30;;;1.63;;
48534;SDS011;34323;52.022;5.686;2023-04-12T13:29:29;10.65;;;1.23;;
48534;SDS011;34323;52.022;5.686;2023-04-12T13:31:55;11.07;;;1.55;;
48534;SDS011;34323;52.022;5.686;2023-04-12T13:34:21;10.18;;;1.50;;
48534;SDS011;34323;52.022;5.686;2023-04-12T13:36:47;5.47;;;1.45;;
48534;SDS011;34323;52.022;5.686;2023-04-12T13:39:13;6.07;;;1.27;;
48534;SDS011;34323;52.022;5.686;2023-04-12T13:41:39;9.07;;;1.67;;
48534;SDS011;34323;52.022;5.686;2023-04-12T13:44:04;9.90;;;1.10;;
48534;SDS011;34323;52.022;5.686;2023-04-12T13:46:30;6.65;;;1.00;;
48534;SDS011;34323;52.022;5.686;2023-04-12T13:48:56;5.13;;;1.42;;
48534;SDS011;34323;52.022;5.686;2023-04-12T13:51:21;3.45;;;0.65;;
48534;SDS011;34323;52.022;5.686;2023-04-12T13:53:47;7.40;;;2.05;;
48534;SDS011;34323;52.022;5.686;2023-04-12T13:56:13;7.78;;;1.30;;
48534;SDS011;34323;52.022;5.686;2023-04-12T13:58:40;9.40;;;1.33;;
48534;SDS011;34323;52.022;5.686;2023-04-12T14:01:06;10.57;;;1.63;;
48534;SDS011;34323;52.022;5.686;2023-04-12T14:03:33;5.68;;;1.02;;
48534;SDS011;34323;52.022;5.686;2023-04-12T14:05:58;10.80;;;1.33;;
48534;SDS011;34323;52.022;5.686;2023-04-12T14:08:27;9.43;;;1.33;;
48534;SDS011;34323;52.022;5.686;2023-04-12T14:10:53;4.30;;;1.35;;
48534;SDS011;34323;52.022;5.686;2023-04-12T14:13:23;5.38;;;1.13;;
48534;SDS011;34323;52.022;5.686;2023-04-12T14:15:52;4.63;;;0.93;;
48534;SDS011;34323;52.022;5.686;2023-04-12T14:18:20;7.32;;;0.93;;
48534;SDS011;34323;52.022;5.686;2023-04-12T14:20:52;4.13;;;1.00;;
48534;SDS011;34323;52.022;5.686;2023-04-12T14:23:18;4.50;;;0.73;;
48534;SDS011;34323;52.022;5.686;2023-04-12T14:25:45;6.90;;;1.30;;
48534;SDS011;34323;52.022;5.686;2023-04-12T14:28:11;7.88;;;1.30;;
48534;SDS011;34323;52.022;5.686;2023-04-12T14:30:40;4.97;;;0.88;;
48534;SDS011;34323;52.022;5.686;2023-04-12T14:33:06;3.42;;;0.82;;
48534;SDS011;34323;52.022;5.686;2023-04-12T14:35:32;3.55;;;0.70;;
48534;SDS011;34323;52.022;5.686;2023-04-12T14:37:58;2.53;;;0.65;;
48534;SDS011;34323;52.022;5.686;2023-04-12T14:40:24;4.15;;;0.73;;
48534;SDS011;34323;52.022;5.686;2023-04-12T14:42:49;2.47;;;0.60;;
48534;SDS011;34323;52.022;5.686;2023-04-12T14:45:15;4.22;;;1.23;;
48534;SDS011;34323;52.022;5.686;2023-04-12T14:47:42;3.80;;;0.68;;
48534;SDS011;34323;52.022;5.686;2023-04-12T14:50:08;5.80;;;0.77;;
48534;SDS011;34323;52.022;5.686;2023-04-12T14:52:34;3.97;;;0.85;;
48534;SDS011;34323;52.022;5.686;2023-04-12T14:54:59;5.05;;;0.85;;
48534;SDS011;34323;52.022;5.686;2023-04-12T14:57:25;1.50;;;0.55;;
48534;SDS011;34323;52.022;5.686;2023-04-12T14:59:51;2.30;;;0.90;;
48534;SDS011;34323;52.022;5.686;2023-04-12T15:02:16;3.40;;;1.05;;
48534;SDS011;34323;52.022;5.686;2023-04-12T15:04:43;1.27;;;0.52;;
48534;SDS011;34323;52.022;5.686;2023-04-12T15:07:11;4.63;;;0.73;;
48534;SDS011;34323;52.022;5.686;2023-04-12T15:09:36;2.78;;;0.73;;
48534;SDS011;34323;52.022;5.686;2023-04-12T15:12:02;2.42;;;0.68;;
48534;SDS011;34323;52.022;5.686;2023-04-12T15:14:28;10.40;;;1.20;;
48534;SDS011;34323;52.022;5.686;2023-04-12T15:16:53;2.83;;;0.68;;
48534;SDS011;34323;52.022;5.686;2023-04-12T15:19:19;3.50;;;0.60;;